createdAt,value
2023-02-09T00:01:10.721Z,102094.59
2023-02-09T00:03:38.142Z,102100.25
2023-02-09T00:06:07.216Z,102103.69
2023-02-09T00:08:35.656Z,102101.75
2023-02-09T00:11:18.327Z,102111.41
2023-02-09T00:13:45.191Z,102104.25
2023-02-09T00:16:12.056Z,102111.03
2023-02-09T00:18:38.878Z,102107.16
2023-02-09T00:21:08.739Z,102111.00
2023-02-09T00:23:38.631Z,102106.75
2023-02-09T00:26:10.643Z,102113.50
2023-02-09T00:28:37.900Z,102104.84
2023-02-09T00:31:10.063Z,102094.38
2023-02-09T00:33:40.483Z,102094.31
2023-02-09T00:36:12.111Z,102092.47
2023-02-09T00:38:40.574Z,102089.66
2023-02-09T00:41:08.212Z,102086.34
2023-02-09T00:43:35.191Z,102090.59
2023-02-09T00:46:02.255Z,102093.69
2023-02-09T00:48:29.426Z,102093.69
2023-02-09T00:50:56.269Z,102092.78
2023-02-09T00:53:23.681Z,102090.09
2023-02-09T00:55:51.702Z,102087.53
2023-02-09T00:58:19.019Z,102083.56
2023-02-09T01:00:46.656Z,102087.00
2023-02-09T01:03:13.492Z,102083.34
2023-02-09T01:05:41.367Z,102083.03
2023-02-09T01:08:08.025Z,102083.09
2023-02-09T01:10:35.053Z,102081.19
2023-02-09T01:13:03.045Z,102080.59
2023-02-09T01:15:30.001Z,102074.63
2023-02-09T01:17:58.651Z,102079.97
2023-02-09T01:20:26.283Z,102080.13
2023-02-09T01:22:52.929Z,102075.00
2023-02-09T01:25:19.674Z,102080.94
2023-02-09T01:27:46.248Z,102074.31
2023-02-09T01:30:13.212Z,102074.91
2023-02-09T01:32:40.368Z,102070.81
2023-02-09T01:35:07.220Z,102072.16
2023-02-09T01:37:35.348Z,102069.47
2023-02-09T01:40:02.902Z,102064.38
2023-02-09T01:42:49.625Z,102070.03
2023-02-09T01:45:44.618Z,102062.50
2023-02-09T01:48:31.168Z,102058.66
2023-02-09T01:51:20.263Z,102047.56
2023-02-09T01:54:16.467Z,102046.22
2023-02-09T01:57:38.709Z,102039.81
2023-02-09T02:00:09.581Z,102033.91
2023-02-09T02:02:44.683Z,102034.84
2023-02-09T02:05:12.193Z,102031.69
2023-02-09T02:07:44.872Z,102030.47
2023-02-09T02:10:12.430Z,102027.66
2023-02-09T02:12:39.691Z,102033.56
2023-02-09T02:15:08.445Z,102024.53
2023-02-09T02:18:14.315Z,102023.72
2023-02-09T02:20:56.211Z,102022.66
2023-02-09T02:23:30.535Z,102021.72
2023-02-09T02:26:29.039Z,102017.63
2023-02-09T02:29:12.682Z,101996.09
2023-02-09T02:31:52.357Z,101999.97
2023-02-09T02:34:33.847Z,102003.63
2023-02-09T02:37:13.620Z,102007.88
2023-02-09T02:39:57.001Z,102003.38
2023-02-09T02:42:52.250Z,102010.25
2023-02-09T02:45:24.947Z,102006.06
2023-02-09T02:48:01.141Z,101995.84
2023-02-09T02:50:34.979Z,101994.50
2023-02-09T02:53:06.098Z,101994.78
2023-02-09T02:55:35.814Z,101992.69
2023-02-09T02:58:06.142Z,101992.69
2023-02-09T03:00:41.723Z,101992.19
2023-02-09T03:03:16.369Z,101996.75
2023-02-09T03:05:44.759Z,102000.91
2023-02-09T03:08:11.219Z,102003.16
2023-02-09T03:10:41.443Z,101998.06
2023-02-09T03:13:23.877Z,102003.91
2023-02-09T03:16:21.053Z,101988.53
2023-02-09T03:19:06.654Z,101984.72
2023-02-09T03:22:02.520Z,101987.25
2023-02-09T03:24:39.716Z,101982.97
2023-02-09T03:27:22.297Z,101986.59
2023-02-09T03:29:52.775Z,101993.56
2023-02-09T03:32:21.461Z,101981.72
2023-02-09T03:34:48.116Z,101980.97
2023-02-09T03:37:14.847Z,101982.84
2023-02-09T03:39:42.216Z,101980.28
2023-02-09T03:42:09.237Z,101978.41
2023-02-09T03:44:35.710Z,101981.47
2023-02-09T03:47:05.899Z,101981.78
2023-02-09T03:49:35.588Z,101983.66
2023-02-09T03:52:03.902Z,101983.09
2023-02-09T03:54:31.712Z,101980.53
2023-02-09T03:57:00.153Z,101981.22
2023-02-09T03:59:27.835Z,101980.75
2023-02-09T04:01:56.933Z,101976.56
2023-02-09T04:04:25.265Z,101971.41
2023-02-09T04:06:52.407Z,101967.75
2023-02-09T04:09:19.656Z,101972.06
2023-02-09T04:11:47.172Z,101977.44
2023-02-09T04:14:14.385Z,101982.22
2023-02-09T04:16:41.035Z,101987.19
2023-02-09T04:19:09.807Z,101988.53
2023-02-09T04:21:37.791Z,101986.25
2023-02-09T04:24:05.632Z,101989.00
2023-02-09T04:26:33.496Z,101993.13
2023-02-09T04:29:00.032Z,101990.88
2023-02-09T04:31:27.153Z,101996.00
2023-02-09T04:33:53.735Z,101995.06
2023-02-09T04:36:23.504Z,102001.09
2023-02-09T04:38:50.509Z,102003.72
2023-02-09T04:41:17.212Z,102006.84
2023-02-09T04:43:46.311Z,102010.72
2023-02-09T04:46:17.838Z,102013.22
2023-02-09T04:48:45.270Z,102014.56
2023-02-09T04:51:12.444Z,102022.16
2023-02-09T04:53:39.196Z,102025.59
2023-02-09T04:56:06.378Z,102019.19
2023-02-09T04:58:51.513Z,102016.66
2023-02-09T05:01:24.366Z,102026.72
2023-02-09T05:03:51.734Z,102026.66
2023-02-09T05:06:18.631Z,102029.69
2023-02-09T05:08:46.360Z,102032.44
2023-02-09T05:11:13.044Z,102034.78
2023-02-09T05:13:39.646Z,102032.97
2023-02-09T05:16:14.468Z,102034.66
2023-02-09T05:18:41.050Z,102037.19
2023-02-09T05:21:07.614Z,102032.56
2023-02-09T05:23:34.147Z,102038.47
2023-02-09T05:26:00.964Z,102037.78
2023-02-09T05:28:27.801Z,102036.41
2023-02-09T05:30:54.860Z,102037.34
2023-02-09T05:33:23.493Z,102049.88
2023-02-09T05:35:51.648Z,102044.31
2023-02-09T05:38:18.362Z,102039.72
2023-02-09T05:40:45.512Z,102040.91
2023-02-09T05:43:12.706Z,102041.94
2023-02-09T05:45:39.294Z,102045.88
2023-02-09T05:48:06.142Z,102047.78
2023-02-09T05:50:33.735Z,102042.53
2023-02-09T05:53:06.856Z,102048.72
2023-02-09T05:55:33.931Z,102049.88
2023-02-09T05:58:00.859Z,102050.75
2023-02-09T06:00:29.659Z,102050.19
2023-02-09T06:02:57.198Z,102059.88
2023-02-09T06:05:24.285Z,102052.22
2023-02-09T06:07:50.975Z,102050.63
2023-02-09T06:10:18.552Z,102040.94
2023-02-09T06:12:45.775Z,102043.97
2023-02-09T06:15:13.334Z,102041.88
2023-02-09T06:17:40.226Z,102033.34
2023-02-09T06:20:07.592Z,102040.84
2023-02-09T06:22:34.354Z,102039.16
2023-02-09T06:25:00.923Z,102042.75
2023-02-09T06:27:27.502Z,102040.56
2023-02-09T06:29:54.344Z,102033.84
2023-02-09T06:32:21.011Z,102036.19
2023-02-09T06:34:47.520Z,102046.28
2023-02-09T06:37:14.241Z,102044.72
2023-02-09T06:39:40.815Z,102040.50
2023-02-09T06:42:07.239Z,102054.75
2023-02-09T06:44:33.684Z,102056.16
2023-02-09T06:47:00.667Z,102051.13
2023-02-09T06:49:27.289Z,102050.63
2023-02-09T06:51:54.045Z,102049.53
2023-02-09T06:54:21.418Z,102058.50
2023-02-09T06:56:47.903Z,102050.97
2023-02-09T06:59:14.640Z,102051.44
2023-02-09T07:01:41.417Z,102055.06
2023-02-09T07:04:07.918Z,102048.94
2023-02-09T07:06:34.548Z,102050.03
2023-02-09T07:09:00.969Z,102044.19
2023-02-09T07:11:27.523Z,102062.06
2023-02-09T07:13:54.028Z,102062.31
2023-02-09T07:16:20.953Z,102062.66
2023-02-09T07:18:47.476Z,102071.69
2023-02-09T07:21:22.265Z,102075.50
2023-02-09T07:23:48.884Z,102077.72
2023-02-09T07:26:17.773Z,102075.94
2023-02-09T07:28:44.843Z,102072.94
2023-02-09T07:31:13.641Z,102069.66
2023-02-09T07:33:40.809Z,102075.25
2023-02-09T07:36:10.373Z,102081.78
2023-02-09T07:38:38.692Z,102086.13
2023-02-09T07:41:07.458Z,102080.56
2023-02-09T07:43:34.795Z,102085.16
2023-02-09T07:46:07.016Z,102090.44
2023-02-09T07:48:35.223Z,102093.56
2023-02-09T07:51:02.521Z,102095.94
2023-02-09T07:53:29.766Z,102099.41
2023-02-09T07:55:56.544Z,102089.56
2023-02-09T07:58:23.764Z,102098.72
2023-02-09T08:00:51.060Z,102093.06
2023-02-09T08:03:21.086Z,102088.09
2023-02-09T08:05:48.319Z,102094.81
2023-02-09T08:08:15.093Z,102097.22
2023-02-09T08:10:42.672Z,102091.44
2023-02-09T08:13:09.667Z,102099.56
2023-02-09T08:15:43.127Z,102099.41
2023-02-09T08:18:17.606Z,102090.44
2023-02-09T08:20:45.835Z,102092.72
2023-02-09T08:23:18.731Z,102091.97
2023-02-09T08:25:47.365Z,102100.91
2023-02-09T08:28:14.473Z,102107.34
2023-02-09T08:30:41.033Z,102110.41
2023-02-09T08:33:07.801Z,102104.81
2023-02-09T08:35:34.319Z,102098.97
2023-02-09T08:38:03.317Z,102097.91
2023-02-09T08:40:31.073Z,102099.91
2023-02-09T08:42:58.377Z,102105.47
2023-02-09T08:45:25.022Z,102108.06
2023-02-09T08:47:51.633Z,102101.03
2023-02-09T08:50:18.444Z,102103.25
2023-02-09T08:52:45.044Z,102110.34
2023-02-09T08:55:11.634Z,102114.09
2023-02-09T08:57:43.931Z,102118.69
2023-02-09T09:00:11.944Z,102118.69
2023-02-09T09:02:38.487Z,102114.16
2023-02-09T09:05:05.247Z,102114.59
2023-02-09T09:07:31.668Z,102118.31
2023-02-09T09:09:58.120Z,102119.03
2023-02-09T09:12:24.938Z,102126.81
2023-02-09T09:14:51.399Z,102130.53
2023-02-09T09:17:18.208Z,102132.91
2023-02-09T09:19:45.204Z,102127.09
2023-02-09T09:22:11.836Z,102124.28
2023-02-09T09:24:40.748Z,102118.88
2023-02-09T09:27:08.836Z,102125.44
2023-02-09T09:29:36.791Z,102123.97
2023-02-09T09:32:03.589Z,102122.41
2023-02-09T09:34:30.141Z,102124.84
2023-02-09T09:36:56.826Z,102126.75
2023-02-09T09:39:24.408Z,102130.00
2023-02-09T09:41:55.605Z,102139.13
2023-02-09T09:44:30.692Z,102127.00
2023-02-09T09:47:01.480Z,102122.34
2023-02-09T09:49:29.310Z,102132.22
2023-02-09T09:52:17.415Z,102132.47
2023-02-09T09:54:45.016Z,102133.34
2023-02-09T09:57:43.310Z,102142.63
2023-02-09T10:00:23.840Z,102140.28
2023-02-09T10:02:51.110Z,102134.63
2023-02-09T10:05:26.751Z,102136.44
2023-02-09T10:08:16.121Z,102122.56
2023-02-09T10:10:47.982Z,102124.44
2023-02-09T10:13:22.155Z,102122.78
2023-02-09T10:15:54.155Z,102123.97
2023-02-09T10:18:25.291Z,102122.25
2023-02-09T10:21:01.728Z,102131.44
2023-02-09T10:23:38.944Z,102122.88
2023-02-09T10:26:08.608Z,102120.06
2023-02-09T10:28:51.359Z,102118.53
2023-02-09T10:31:23.312Z,102126.09
2023-02-09T10:34:02.044Z,102123.91
2023-02-09T10:36:35.791Z,102119.03
2023-02-09T10:39:14.297Z,102123.66
2023-02-09T10:41:43.705Z,102117.44
2023-02-09T10:44:26.804Z,102117.94
2023-02-09T10:47:27.253Z,102099.16
2023-02-09T10:50:17.477Z,102101.09
2023-02-09T10:52:59.325Z,102094.22
2023-02-09T10:55:39.168Z,102100.78
2023-02-09T10:58:08.798Z,102099.88
2023-02-09T11:00:47.547Z,102094.28
2023-02-09T11:03:25.168Z,102088.66
2023-02-09T11:06:20.304Z,102092.06
2023-02-09T11:08:53.021Z,102087.91
2023-02-09T11:11:32.426Z,102090.66
2023-02-09T11:13:59.670Z,102098.06
2023-02-09T11:16:33.305Z,102086.72
2023-02-09T11:19:22.310Z,102084.13
2023-02-09T11:21:54.343Z,102075.66
2023-02-09T11:24:37.823Z,102068.34
2023-02-09T11:27:15.943Z,102067.16
2023-02-09T11:30:05.822Z,102070.97
2023-02-09T11:32:35.233Z,102070.91
2023-02-09T11:35:18.978Z,102065.09
2023-02-09T11:38:20.504Z,102069.34
2023-02-09T11:40:57.519Z,102063.69
2023-02-09T11:43:40.728Z,102061.69
2023-02-09T11:46:15.240Z,102048.94
2023-02-09T11:48:52.098Z,102046.97
2023-02-09T11:51:20.905Z,102060.81
2023-02-09T11:54:07.328Z,102050.97
2023-02-09T11:56:42.234Z,102050.22
2023-02-09T11:59:08.919Z,102040.06
2023-02-09T12:01:44.215Z,102042.97
2023-02-09T12:04:24.608Z,102034.16
2023-02-09T12:06:55.201Z,102039.72
2023-02-09T12:09:29.774Z,102047.78
2023-02-09T12:12:06.015Z,102037.47
2023-02-09T12:14:48.300Z,102036.69
2023-02-09T12:17:21.089Z,102046.88
2023-02-09T12:19:59.143Z,102053.66
2023-02-09T12:22:34.835Z,102048.63
2023-02-09T12:25:33.458Z,102048.16
2023-02-09T12:28:17.658Z,102055.09
2023-02-09T12:30:44.540Z,102053.16
2023-02-09T12:33:23.675Z,102062.16
2023-02-09T12:36:16.210Z,102050.34
2023-02-09T12:38:56.432Z,102052.66
2023-02-09T12:41:28.077Z,102061.78
2023-02-09T12:44:11.763Z,102056.47
2023-02-09T12:46:44.578Z,102053.13
2023-02-09T12:49:11.057Z,102049.81
2023-02-09T12:51:53.005Z,102046.88
2023-02-09T12:54:25.463Z,102047.66
2023-02-09T12:56:52.209Z,102048.38
2023-02-09T12:59:22.481Z,102052.44
2023-02-09T13:02:07.700Z,102046.59
2023-02-09T13:04:41.566Z,102046.06
2023-02-09T13:07:22.489Z,102039.34
2023-02-09T13:09:51.195Z,102041.09
2023-02-09T13:12:23.101Z,102040.50
2023-02-09T13:14:50.998Z,102030.94
2023-02-09T13:17:35.041Z,102027.25
2023-02-09T13:20:22.452Z,102030.75
2023-02-09T13:23:17.099Z,102018.91
2023-02-09T13:25:44.172Z,102027.34
2023-02-09T13:28:22.336Z,102020.31
2023-02-09T13:30:49.201Z,102019.63
2023-02-09T13:33:40.041Z,102020.34
2023-02-09T13:36:11.173Z,102025.81
2023-02-09T13:38:43.211Z,102023.16
2023-02-09T13:41:25.265Z,102024.97
2023-02-09T13:43:52.199Z,102026.56
2023-02-09T13:46:35.038Z,102029.25
2023-02-09T13:49:13.396Z,102028.31
2023-02-09T13:51:40.200Z,102031.81
2023-02-09T13:54:07.026Z,102031.69
2023-02-09T13:56:37.759Z,102035.81
2023-02-09T13:59:05.039Z,102035.28
2023-02-09T14:01:34.388Z,102035.94
2023-02-09T14:04:11.480Z,102049.03
2023-02-09T14:06:49.752Z,102045.63
2023-02-09T14:09:28.418Z,102045.66
2023-02-09T14:12:12.724Z,102059.59
2023-02-09T14:15:07.850Z,102050.81
2023-02-09T14:17:39.123Z,102051.59
2023-02-09T14:20:21.732Z,102045.81
2023-02-09T14:23:00.228Z,102047.66
2023-02-09T14:25:28.851Z,102042.84
2023-02-09T14:27:56.625Z,102042.00
2023-02-09T14:30:27.165Z,102034.31
2023-02-09T14:32:56.872Z,102032.75
2023-02-09T14:35:23.589Z,102025.41
2023-02-09T14:37:51.957Z,102031.28
2023-02-09T14:40:22.431Z,102028.69
2023-02-09T14:43:01.450Z,102032.41
2023-02-09T14:45:28.062Z,102039.31
2023-02-09T14:47:54.575Z,102026.06
2023-02-09T14:50:23.893Z,102025.28
2023-02-09T14:52:54.219Z,102025.78
2023-02-09T14:55:27.701Z,102026.16
2023-02-09T14:57:54.190Z,102027.38
2023-02-09T15:00:24.103Z,102030.03
2023-02-09T15:02:52.218Z,102046.47
2023-02-09T15:05:20.740Z,102045.13
2023-02-09T15:07:52.623Z,102039.56
2023-02-09T15:10:32.457Z,102038.69
2023-02-09T15:12:59.441Z,102035.56
2023-02-09T15:15:27.054Z,102026.00
2023-02-09T15:17:55.149Z,102015.38
2023-02-09T15:20:26.021Z,102017.00
2023-02-09T15:22:53.804Z,102021.81
2023-02-09T15:25:21.131Z,102016.78
2023-02-09T15:27:53.962Z,102010.00
2023-02-09T15:30:26.685Z,102017.59
2023-02-09T15:32:53.959Z,102013.09
2023-02-09T15:35:23.550Z,102015.06
2023-02-09T15:37:55.714Z,102023.84
2023-02-09T15:40:47.056Z,102021.19
2023-02-09T15:43:37.396Z,102022.28
2023-02-09T15:46:11.183Z,102032.72
2023-02-09T15:48:37.925Z,102034.47
2023-02-09T15:51:04.683Z,102044.00
2023-02-09T15:53:31.997Z,102044.88
2023-02-09T15:55:59.269Z,102038.72
2023-02-09T15:58:35.278Z,102043.94
2023-02-09T16:01:02.240Z,102049.94
2023-02-09T16:03:28.799Z,102048.09
2023-02-09T16:06:16.690Z,102060.00
2023-02-09T16:08:44.231Z,102055.53
2023-02-09T16:11:23.207Z,102053.72
2023-02-09T16:13:51.257Z,102062.19
2023-02-09T16:16:18.097Z,102059.72
2023-02-09T16:18:46.470Z,102061.19
2023-02-09T16:21:19.932Z,102066.28
2023-02-09T16:23:47.642Z,102063.53
2023-02-09T16:26:14.494Z,102070.53
2023-02-09T16:28:41.559Z,102065.97
2023-02-09T16:31:10.405Z,102065.91
2023-02-09T16:33:38.826Z,102077.75
2023-02-09T16:36:13.628Z,102077.56
2023-02-09T16:38:40.125Z,102074.84
2023-02-09T16:41:26.654Z,102071.16
2023-02-09T16:43:53.505Z,102078.69
2023-02-09T16:46:20.045Z,102095.56
2023-02-09T16:48:46.821Z,102094.53
2023-02-09T16:51:15.789Z,102105.59
2023-02-09T16:53:48.222Z,102108.81
2023-02-09T16:56:15.574Z,102100.94
2023-02-09T16:58:43.017Z,102104.13
2023-02-09T17:01:17.567Z,102116.00
2023-02-09T17:03:48.020Z,102123.59
2023-02-09T17:06:17.708Z,102121.72
2023-02-09T17:08:44.353Z,102131.78
2023-02-09T17:11:18.466Z,102122.09
2023-02-09T17:13:45.279Z,102116.81
2023-02-09T17:16:21.719Z,102117.50
2023-02-09T17:18:55.453Z,102131.75
2023-02-09T17:21:26.113Z,102127.28
2023-02-09T17:23:53.385Z,102130.63
2023-02-09T17:26:20.645Z,102133.91
2023-02-09T17:28:47.843Z,102122.66
2023-02-09T17:31:30.565Z,102118.31
2023-02-09T17:34:02.161Z,102121.66
2023-02-09T17:36:30.064Z,102128.16
2023-02-09T17:38:58.692Z,102122.94
2023-02-09T17:41:29.062Z,102125.47
2023-02-09T17:43:58.759Z,102126.78
2023-02-09T17:46:26.228Z,102134.41
2023-02-09T17:48:52.901Z,102139.50
2023-02-09T17:51:28.575Z,102134.97
2023-02-09T17:53:55.880Z,102132.16
2023-02-09T17:56:22.409Z,102139.00
2023-02-09T17:58:48.931Z,102142.22
2023-02-09T18:01:26.058Z,102138.53
2023-02-09T18:03:55.006Z,102147.09
2023-02-09T18:06:34.149Z,102149.53
2023-02-09T18:09:02.186Z,102162.25
2023-02-09T18:11:40.616Z,102168.59
2023-02-09T18:14:07.445Z,102175.63
2023-02-09T18:16:36.427Z,102182.56
2023-02-09T18:19:03.412Z,102174.81
2023-02-09T18:21:30.510Z,102178.06
2023-02-09T18:23:57.524Z,102181.97
2023-02-09T18:26:24.203Z,102183.56
2023-02-09T18:28:50.643Z,102170.53
2023-02-09T18:31:17.241Z,102175.38
2023-02-09T18:33:44.960Z,102183.91
2023-02-09T18:36:14.736Z,102192.34
2023-02-09T18:38:41.935Z,102182.88
2023-02-09T18:41:14.742Z,102182.50
2023-02-09T18:43:41.262Z,102198.03
2023-02-09T18:46:08.037Z,102204.22
2023-02-09T18:48:34.729Z,102203.09
2023-02-09T18:51:02.365Z,102194.44
2023-02-09T18:53:28.836Z,102198.38
2023-02-09T18:55:55.405Z,102192.94
2023-02-09T18:58:21.949Z,102197.25
2023-02-09T19:00:48.444Z,102200.69
2023-02-09T19:03:19.911Z,102194.00
2023-02-09T19:05:48.587Z,102196.78
2023-02-09T19:08:15.634Z,102207.28
2023-02-09T19:10:42.838Z,102212.00
2023-02-09T19:13:09.710Z,102209.72
2023-02-09T19:15:38.979Z,102216.66
2023-02-09T19:18:05.930Z,102220.41
2023-02-09T19:20:33.887Z,102222.69
2023-02-09T19:23:00.502Z,102229.63
2023-02-09T19:25:28.654Z,102226.81
2023-02-09T19:27:55.957Z,102231.31
2023-02-09T19:30:25.010Z,102238.88
2023-02-09T19:33:00.483Z,102232.09
2023-02-09T19:35:29.480Z,102235.75
2023-02-09T19:37:58.231Z,102235.09
2023-02-09T19:40:35.840Z,102232.44
2023-02-09T19:43:04.440Z,102237.22
2023-02-09T19:45:36.543Z,102239.19
2023-02-09T19:48:05.417Z,102229.69
2023-02-09T19:50:32.666Z,102232.25
2023-02-09T19:52:59.616Z,102238.38
2023-02-09T19:55:26.108Z,102234.03
2023-02-09T19:57:52.869Z,102233.22
2023-02-09T20:00:19.679Z,102245.94
2023-02-09T20:02:47.138Z,102248.25
2023-02-09T20:05:16.127Z,102246.50
2023-02-09T20:07:43.338Z,102242.59
2023-02-09T20:10:10.278Z,102238.50
2023-02-09T20:12:37.090Z,102239.44
2023-02-09T20:15:04.381Z,102245.28
2023-02-09T20:17:31.224Z,102239.41
2023-02-09T20:19:57.844Z,102239.41
2023-02-09T20:22:24.414Z,102244.69
2023-02-09T20:24:50.928Z,102250.44
2023-02-09T20:27:19.443Z,102252.03
2023-02-09T20:29:45.911Z,102242.53
2023-02-09T20:32:13.032Z,102244.00
2023-02-09T20:34:39.999Z,102244.00
2023-02-09T20:37:06.823Z,102251.59
2023-02-09T20:39:33.352Z,102261.84
2023-02-09T20:42:18.585Z,102256.22
2023-02-09T20:45:04.344Z,102265.63
2023-02-09T20:47:30.990Z,102263.47
2023-02-09T20:49:59.897Z,102278.44
2023-02-09T20:52:28.244Z,102285.63
2023-02-09T20:54:55.859Z,102284.69
2023-02-09T20:57:29.108Z,102291.84
2023-02-09T20:59:57.043Z,102290.03
2023-02-09T21:02:24.307Z,102294.34
2023-02-09T21:04:51.354Z,102293.91
2023-02-09T21:07:19.996Z,102297.34
2023-02-09T21:09:47.316Z,102295.22
2023-02-09T21:12:14.236Z,102290.78
2023-02-09T21:14:45.192Z,102297.66
2023-02-09T21:17:12.696Z,102296.91
2023-02-09T21:19:39.660Z,102290.31
2023-02-09T21:22:06.640Z,102300.47
2023-02-09T21:24:33.499Z,102299.47
2023-02-09T21:27:03.086Z,102302.16
2023-02-09T21:29:29.699Z,102301.28
2023-02-09T21:32:01.344Z,102301.16
2023-02-09T21:34:28.159Z,102305.16
2023-02-09T21:36:54.737Z,102299.84
2023-02-09T21:39:21.306Z,102300.59
2023-02-09T21:42:06.536Z,102303.97
2023-02-09T21:44:36.030Z,102294.28
2023-02-09T21:47:02.843Z,102298.59
2023-02-09T21:49:31.624Z,102302.91
2023-02-09T21:51:58.671Z,102300.88
2023-02-09T21:54:26.961Z,102294.81
2023-02-09T21:56:54.690Z,102289.56
2023-02-09T21:59:24.209Z,102291.50
2023-02-09T22:01:50.672Z,102292.38
2023-02-09T22:04:17.263Z,102293.00
2023-02-09T22:06:43.894Z,102292.19
2023-02-09T22:09:10.346Z,102293.47
2023-02-09T22:11:36.852Z,102293.75
2023-02-09T22:14:04.176Z,102293.72
2023-02-09T22:16:30.781Z,102296.38
2023-02-09T22:18:59.065Z,102295.47
2023-02-09T22:21:26.333Z,102305.72
2023-02-09T22:23:53.444Z,102303.91
2023-02-09T22:26:19.939Z,102303.16
2023-02-09T22:28:49.387Z,102303.03
2023-02-09T22:31:18.649Z,102300.34
2023-02-09T22:33:45.781Z,102308.75
2023-02-09T22:36:15.031Z,102321.97
2023-02-09T22:38:42.117Z,102305.53
2023-02-09T22:41:25.995Z,102318.47
2023-02-09T22:43:55.849Z,102312.41
2023-02-09T22:46:24.637Z,102314.09
2023-02-09T22:48:56.901Z,102312.13
2023-02-09T22:51:25.180Z,102301.25
2023-02-09T22:53:51.727Z,102311.34
2023-02-09T22:56:18.430Z,102308.78
2023-02-09T22:58:45.145Z,102309.44
2023-02-09T23:01:12.505Z,102315.72
2023-02-09T23:03:40.193Z,102329.41
2023-02-09T23:06:09.345Z,102316.59
2023-02-09T23:08:36.142Z,102328.06
2023-02-09T23:11:08.619Z,102326.78
2023-02-09T23:13:37.426Z,102334.53
2023-02-09T23:16:17.644Z,102331.97
2023-02-09T23:18:49.680Z,102332.72
2023-02-09T23:21:18.631Z,102333.53
2023-02-09T23:23:45.465Z,102334.97
2023-02-09T23:26:12.942Z,102330.88
2023-02-09T23:28:39.749Z,102327.03
2023-02-09T23:31:13.526Z,102330.53
2023-02-09T23:33:40.966Z,102324.47
2023-02-09T23:36:10.926Z,102318.63
2023-02-09T23:38:37.637Z,102319.34
2023-02-09T23:41:09.008Z,102324.53
2023-02-09T23:43:36.948Z,102329.41
2023-02-09T23:46:05.534Z,102330.88
2023-02-09T23:48:33.310Z,102325.03
2023-02-09T23:51:08.986Z,102340.06
2023-02-09T23:53:35.503Z,102340.19
2023-02-09T23:56:05.572Z,102340.81
2023-02-09T23:58:40.614Z,102335.97
